Time;durP1;ratioP1;P1;durP2;ratioP2;P2;SDS_P1;SDS_P2;PMS_P1;PMS_P2;Temp;Humidity;BMP_temperature;BMP_pressure;BME280_temperature;BME280_humidity;BME280_pressure;Samples;Min_cycle;Max_cycle;Signal;HPM_P1;HPM_P2
2022/10/29 00:04:07;;;;;;;38.55;10.05;;;;;;;10.26;100.00;101804.31;12454771;23;20539;-90
2022/10/29 00:09:36;;;;;;;34.47;8.63;;;;;;;11.88;100.00;102103.34;12490149;23;20026;-90
2022/10/29 00:14:37;;;;;;;38.65;9.57;;;;;;;10.67;100.00;101921.22;12523345;23;20078;-90
2022/10/29 00:19:40;;;;;;;30.58;9.95;;;;;;;10.67;100.00;101956.19;12487884;23;20386;-89
2022/10/29 00:24:41;;;;;;;29.70;9.63;;;;;;;10.98;100.00;102002.00;12475965;23;20053;-91
2022/10/29 00:29:42;;;;;;;39.42;10.80;;;;;;;10.35;100.00;101934.25;12457550;23;20018;-90
2022/10/29 00:34:45;;;;;;;42.05;12.60;;;;;;;10.09;100.00;101907.81;12477235;23;20035;-90
2022/10/29 00:39:46;;;;;;;33.78;11.55;;;;;;;10.18;100.00;101895.44;12506201;23;20002;-91
2022/10/29 00:44:50;;;;;;;55.78;13.88;;;;;;;9.94;100.00;101866.03;12526781;23;20006;-90
2022/10/29 00:50:02;;;;;;;54.90;15.35;;;;;;;10.44;100.00;102003.66;12500086;23;20009;-90
2022/10/29 00:55:05;;;;;;;40.60;12.40;;;;;;;9.57;100.00;101838.41;12502104;23;20030;-90
2022/10/29 01:00:07;;;;;;;58.85;15.27;;;;;;;10.14;100.00;101920.88;12478613;23;20030;-90
2022/10/29 01:05:11;;;;;;;41.40;12.93;;;;;;;10.40;100.00;101974.88;12476285;23;20026;-89
2022/10/29 01:10:15;;;;;;;39.03;11.93;;;;;;;10.55;100.00;102005.63;12481469;23;20112;-89
2022/10/29 01:15:30;;;;;;;;;;;;;;;;;;;;;
2022/10/29 01:21:35;;;;;;;35.03;11.45;;;;;;;11.26;100.00;102097.94;12521602;23;20010;-90
2022/10/29 01:27:07;;;;;;;44.80;11.88;;;;;;;11.17;100.00;102106.75;12511806;23;20113;-90
2022/10/29 01:32:39;;;;;;;34.30;11.75;;;;;;;10.77;100.00;102079.56;12543803;23;20045;-90
2022/10/29 01:38:01;;;;;;;45.28;14.57;;;;;;;11.10;100.00;102112.34;12480212;23;20073;-89
2022/10/29 01:43:18;;;;;;;34.13;11.80;;;;;;;9.58;100.00;101838.19;12484996;23;20003;-89
2022/10/29 01:48:26;;;;;;;;;;;;;;;11.03;100.00;102093.09;12406200;23;20007;-90
2022/10/29 01:53:30;;;;;;;29.65;11.10;;;;;;;9.70;100.00;101918.06;12518684;23;19925;-90
2022/10/29 01:58:34;;;;;;;38.15;10.68;;;;;;;9.49;100.00;101925.63;12474251;23;20532;-89
2022/10/29 02:03:53;;;;;;;20.75;7.95;;;;;;;10.60;100.00;102071.03;12447547;23;20090;-88
2022/10/29 02:08:54;;;;;;;16.30;7.22;;;;;;;10.53;100.00;102054.59;12553895;23;20037;-90
2022/10/29 02:14:29;;;;;;;23.33;7.05;;;;;;;10.48;100.00;102054.44;12527658;23;20014;-90
2022/10/29 02:19:31;;;;;;;17.60;7.65;;;;;;;8.72;100.00;101795.66;12404907;23;20011;-90
2022/10/29 02:24:34;;;;;;;33.35;9.70;;;;;;;9.90;100.00;102001.28;12452495;23;20015;-89
2022/10/29 02:29:35;;;;;;;25.60;8.70;;;;;;;8.75;100.00;101852.06;12475547;23;20011;-89
2022/10/29 02:34:39;;;;;;;28.80;9.70;;;;;;;10.23;100.00;102092.91;12452957;23;20023;-89
2022/10/29 02:39:39;;;;;;;27.00;8.20;;;;;;;8.84;100.00;101834.25;12432153;23;20015;-89
2022/10/29 02:44:43;;;;;;;37.83;9.43;;;;;;;8.47;100.00;101774.50;12427851;23;20087;-89
2022/10/29 02:49:54;;;;;;;30.73;9.52;;;;;;;9.66;100.00;101971.81;12389400;23;20007;-88
2022/10/29 02:54:55;;;;;;;30.80;9.18;;;;;;;9.89;100.00;101996.81;12480518;23;20028;-89
2022/10/29 02:59:56;;;;;;;28.05;10.18;;;;;;;8.88;100.00;101857.47;12555240;23;20006;-88
2022/10/29 03:04:57;;;;;;;35.25;9.23;;;;;;;8.58;100.00;101766.59;12541054;23;20017;-89
2022/10/29 03:10:00;;;;;;;21.10;9.48;;;;;;;9.48;100.00;101932.16;12570227;23;20068;-91
2022/10/29 03:15:04;;;;;;;30.63;8.97;;;;;;;9.03;100.00;101854.44;12556405;23;20030;-90
2022/10/29 03:20:05;;;;;;;37.03;10.65;;;;;;;9.00;100.00;101883.19;12537069;23;20087;-89
2022/10/29 03:25:06;;;;;;;31.60;9.57;;;;;;;8.68;100.00;101835.59;12531245;23;20026;-89
2022/10/29 03:30:09;;;;;;;33.38;9.23;;;;;;;8.48;100.00;101800.03;12566217;23;20014;-88
2022/10/29 03:35:10;;;;;;;22.23;8.85;;;;;;;8.77;100.00;101837.06;12554877;23;20092;-90
2022/10/29 03:40:11;;;;;;;14.45;8.57;;;;;;;8.63;100.00;101814.31;12577170;23;20085;-90
2022/10/29 03:45:12;;;;;;;29.73;10.52;;;;;;;8.54;100.00;101796.41;12567123;23;20060;-89
2022/10/29 03:50:13;;;;;;;18.30;9.05;;;;;;;8.68;100.00;101775.19;12538355;23;20025;-88
2022/10/29 03:55:17;;;;;;;23.63;9.60;;;;;;;9.59;100.00;101935.25;12561573;23;20026;-89
2022/10/29 04:00:20;;;;;;;14.90;9.40;;;;;;;8.88;100.00;101780.59;12485351;23;20540;-90
2022/10/29 04:05:23;;;;;;;19.80;10.90;;;;;;;9.41;100.00;101851.66;12543112;23;20033;-90
2022/10/29 04:10:25;;;;;;;31.15;12.38;;;;;;;9.53;100.00;101843.56;12527703;23;20021;-89
2022/10/29 04:15:29;;;;;;;34.38;12.40;;;;;;;9.15;100.00;101807.88;12528996;23;20037;-91
2022/10/29 04:20:30;;;;;;;25.52;13.27;;;;;;;9.49;100.00;101854.13;12548249;23;20013;-89
2022/10/29 04:25:31;;;;;;;28.35;13.32;;;;;;;10.05;100.00;101956.94;12528192;23;20444;-90
2022/10/29 04:30:32;;;;;;;48.22;14.52;;;;;;;9.52;100.00;101863.00;12563680;23;20021;-90
2022/10/29 04:35:33;;;;;;;47.65;16.13;;;;;;;9.83;100.00;101871.19;12520709;23;20010;-90
2022/10/29 04:40:37;;;;;;;64.10;19.92;;;;;;;9.47;100.00;101828.78;12523471;23;20448;-88
2022/10/29 04:45:40;;;;;;;43.55;16.58;;;;;;;10.18;100.00;101939.47;12577060;23;20021;-89
2022/10/29 04:50:41;;;;;;;47.50;17.85;;;;;;;9.64;100.00;101855.72;12552736;23;20037;-88
2022/10/29 04:55:42;;;;;;;60.85;18.45;;;;;;;10.04;100.00;101888.38;12613008;23;20026;-90
2022/10/29 05:00:53;;;;;;;;;;;;;;;;;;;;;
2022/10/29 05:05:57;;;;;;;61.17;19.95;;;;;;;10.60;100.00;101978.25;12591989;23;20016;-89
2022/10/29 05:11:04;;;;;;;87.35;21.20;;;;;;;10.75;100.00;101982.56;12549507;23;20026;-88
2022/10/29 05:16:08;;;;;;;74.22;22.50;;;;;;;10.35;100.00;101931.50;12571163;23;20009;-89
2022/10/29 05:21:41;;;;;;;96.90;23.92;;;;;;;11.49;100.00;102052.28;12557731;23;20343;-89
2022/10/29 05:26:44;;;;;;;80.30;25.25;;;;;;;9.36;100.00;101688.50;12485531;23;20040;-89
2022/10/29 05:31:47;;;;;;;130.05;29.15;;;;;;;10.47;100.00;101871.03;12478320;23;20025;-89
2022/10/29 05:36:47;;;;;;;73.90;25.95;;;;;;;10.16;100.00;101823.28;12493198;23;20014;-88
2022/10/29 05:41:51;;;;;;;148.90;30.60;;;;;;;10.54;100.00;101912.25;12518410;23;20379;-88
2022/10/29 05:46:54;;;;;;;132.85;31.35;;;;;;;11.77;100.00;102051.69;12551287;23;20014;-89
2022/10/29 05:52:05;;;;;;;91.70;28.75;;;;;;;10.42;100.00;101824.09;12466445;23;20025;-89
2022/10/29 05:57:06;;;;;;;97.45;28.13;;;;;;;10.65;100.00;101856.41;12491315;23;20022;-90
2022/10/29 06:02:26;;;;;;;90.25;27.92;;;;;;;11.14;100.00;101928.03;12516499;23;20014;-91
2022/10/29 06:07:32;;;;;;;111.97;28.47;;;;;;;10.66;100.00;101883.69;12482557;23;20773;-91
2022/10/29 06:12:44;;;;;;;97.20;27.65;;;;;;;10.30;100.00;101802.81;12384558;23;20116;-90
2022/10/29 06:17:47;;;;;;;119.32;31.67;;;;;;;10.75;100.00;101853.09;12435727;23;20014;-89
2022/10/29 06:22:59;;;;;;;104.28;29.95;;;;;;;10.34;100.00;101786.69;12394991;23;20436;-91
2022/10/29 06:28:18;;;;;;;93.55;31.27;;;;;;;10.22;100.00;101770.06;12430270;23;20062;-91
2022/10/29 06:33:32;;;;;;;94.22;29.33;;;;;;;9.96;100.00;101742.84;12463212;23;20068;-91
2022/10/29 06:38:40;;;;;;;95.68;28.77;;;;;;;10.88;100.00;101850.19;12348363;23;20006;-90
2022/10/29 06:43:59;;;;;;;83.78;25.85;;;;;;;10.30;100.00;101788.22;12465528;23;20097;-90
2022/10/29 06:49:12;;;;;;;97.53;26.63;;;;;;;10.43;100.00;101770.69;12363224;23;20037;-90
2022/10/29 06:54:23;;;;;;;93.72;26.45;;;;;;;10.58;100.00;101817.91;12416489;23;20076;-90
2022/10/29 06:59:24;;;;;;;93.47;25.08;;;;;;;10.93;100.00;101822.75;12462905;23;20011;-90
2022/10/29 07:04:25;;;;;;;105.65;25.77;;;;;;;10.83;100.00;101770.13;12476386;23;20002;-90
2022/10/29 07:09:31;;;;;;;130.95;26.80;;;;;;;10.58;100.00;101732.56;12468172;23;20017;-91
2022/10/29 07:14:32;;;;;;;107.95;26.33;;;;;;;11.15;100.00;101861.66;12425841;23;20025;-91
2022/10/29 07:19:35;;;;;;;93.30;24.80;;;;;;;11.26;100.00;101835.22;12478686;23;20024;-91
2022/10/29 07:24:44;;;;;;;115.50;26.83;;;;;;;11.91;100.00;101937.34;12509039;23;20010;-90
2022/10/29 07:29:44;;;;;;;106.20;27.08;;;;;;;11.48;100.00;101828.06;12431167;23;20487;-90
2022/10/29 07:34:45;;;;;;;104.60;27.00;;;;;;;11.64;100.00;101886.41;12520561;23;20097;-89
2022/10/29 07:39:49;;;;;;;174.27;29.60;;;;;;;11.38;100.00;101803.00;12448436;23;20033;-91
2022/10/29 07:44:55;;;;;;;129.85;29.52;;;;;;;11.74;100.00;101858.22;12395533;23;20015;-90
2022/10/29 07:49:58;;;;;;;149.85;30.15;;;;;;;11.44;100.00;101796.53;12431058;23;20707;-91
2022/10/29 07:55:01;;;;;;;137.38;29.30;;;;;;;12.42;100.00;101967.25;12487700;23;20024;-91
2022/10/29 08:00:02;;;;;;;127.43;29.08;;;;;;;11.52;100.00;101806.38;12460443;23;20073;-89
2022/10/29 08:05:03;;;;;;;182.88;32.75;;;;;;;11.95;100.00;101834.72;12479127;23;20006;-88
2022/10/29 08:10:06;;;;;;;156.38;31.33;;;;;;;11.59;100.00;101778.69;12482949;23;20014;-89
2022/10/29 08:15:07;;;;;;;159.90;31.63;;;;;;;12.76;100.00;101956.44;12488289;23;20790;-88
2022/10/29 08:20:17;;;;;;;156.77;31.15;;;;;;;12.30;100.00;101860.41;12497648;23;20022;-88
2022/10/29 08:25:20;;;;;;;174.88;31.58;;;;;;;12.21;100.00;101837.00;12417029;23;20007;-90
2022/10/29 08:30:42;;;;;;;154.23;34.63;;;;;;;12.25;100.00;101820.81;12385296;23;20019;-90
2022/10/29 08:35:53;;;;;;;150.40;33.17;;;;;;;12.26;100.00;101779.16;12378427;23;20006;-90
2022/10/29 08:41:31;;;;;;;116.22;33.95;;;;;;;13.73;100.00;102002.69;12308818;23;20011;-91
2022/10/29 08:46:48;;;;;;;122.20;35.03;;;;;;;13.80;100.00;102013.59;12354603;23;20025;-90
2022/10/29 08:52:19;;;;;;;129.20;38.55;;;;;;;12.35;100.00;101792.59;12370193;23;20019;-90
2022/10/29 08:57:23;;;;;;;119.28;38.83;;;;;;;12.86;100.00;101860.78;12455542;23;20030;-89
2022/10/29 09:02:31;;;;;;;105.32;40.05;;;;;;;12.55;100.00;101792.16;12522900;23;20006;-89
2022/10/29 09:07:49;;;;;;;115.43;40.47;;;;;;;13.99;100.00;102012.28;12478008;23;20002;-89
2022/10/29 09:13:03;;;;;;;98.22;38.10;;;;;;;14.03;100.00;102013.47;12492932;23;20530;-90
2022/10/29 09:18:25;;;;;;;100.40;36.45;;;;;;;14.14;100.00;102028.38;12495922;23;20006;-90
2022/10/29 09:23:40;;;;;;;90.60;36.15;;;;;;;13.59;100.00;101901.72;12457541;23;20010;-90
2022/10/29 09:29:23;;;;;;;;;;;;;;;;;;;;;
2022/10/29 09:34:50;;;;;;;;;;;;;;;;;;;;;
2022/10/29 09:39:56;;;;;;;59.47;27.50;;;;;;;13.35;100.00;101852.03;12360785;23;20026;-90
2022/10/29 09:45:08;;;;;;;;;;;;;;;;;;;;;
2022/10/29 09:50:40;;;;;;;67.38;27.48;;;;;;;14.39;100.00;101994.69;12535617;23;20093;-90
2022/10/29 09:55:52;;;;;;;58.90;26.25;;;;;;;13.71;100.00;101878.41;12510097;23;20089;-89
2022/10/29 10:00:55;;;;;;;62.03;26.00;;;;;;;13.47;100.00;101866.63;12401743;23;20034;-90
2022/10/29 10:06:01;;;;;;;58.60;25.70;;;;;;;13.28;100.00;101829.22;12436247;23;20041;-89
2022/10/29 10:11:03;;;;;;;52.42;24.85;;;;;;;13.29;100.00;101808.78;12400941;23;20445;-88
2022/10/29 10:16:04;;;;;;;40.17;21.67;;;;;;;13.46;100.00;101837.31;12384797;23;20003;-89
2022/10/29 10:21:15;;;;;;;55.25;24.08;;;;;;;14.84;100.00;101990.13;12395226;23;20026;-88
2022/10/29 10:26:42;;;;;;;48.45;24.08;;;;;;;15.19;100.00;101962.00;12489627;23;20112;-89
2022/10/29 10:31:45;;;;;;;45.38;21.13;;;;;;;13.93;100.00;101737.31;12498848;23;20334;-90
2022/10/29 10:36:55;;;;;;;40.75;18.42;;;;;;;15.21;100.00;101862.72;12500180;23;20013;-88
2022/10/29 10:42:01;;;;;;;32.15;16.27;;;;;;;15.08;100.00;101808.50;12517710;23;20046;-89
2022/10/29 10:53:39;;;;;;;34.47;15.57;;;;;;;15.08;100.00;101736.41;12377556;23;20347;-90
2022/10/29 11:00:14;;;;;;;30.63;15.25;;;;;;;16.59;100.00;101926.91;12518238;23;20462;-88
2022/10/29 11:11:44;;;;;;;25.10;14.02;;;;;;;17.15;100.00;101935.53;12424344;23;20027;-91
2022/10/29 11:16:49;;;;;;;29.42;13.93;;;;;;;17.33;100.00;101889.69;12310305;23;20019;-89
2022/10/29 11:21:54;;;;;;;25.40;12.68;;;;;;;16.19;100.00;101694.97;12445469;23;20062;-89
2022/10/29 11:27:04;;;;;;;20.80;12.40;;;;;;;16.48;100.00;101661.97;12511358;23;20442;-91
2022/10/29 11:32:32;;;;;;;26.25;12.50;;;;;;;18.06;100.00;101859.94;12371486;23;20018;-90
2022/10/29 11:37:43;;;;;;;25.77;11.70;;;;;;;17.15;100.00;101668.41;12446470;23;20068;-89
2022/10/29 11:42:47;;;;;;;25.13;11.02;;;;;;;17.60;100.00;101651.09;12486051;23;20022;-91
2022/10/29 11:48:09;;;;;;;;;;;;;;;19.32;100.00;101815.03;12371811;23;20195;-90
2022/10/29 11:53:29;;;;;;;22.00;10.63;;;;;;;19.74;100.00;101807.19;12445127;23;19913;-90
2022/10/29 11:58:45;;;;;;;21.52;10.48;;;;;;;18.75;100.00;101621.25;12374207;23;20018;-91
2022/10/29 12:03:54;;;;;;;16.17;9.32;;;;;;;20.40;100.00;101802.00;12498332;23;20438;-91
2022/10/29 12:09:38;;;;;;;21.55;9.60;;;;;;;20.18;100.00;101822.16;12466309;23;20006;-86
2022/10/29 12:14:50;;;;;;;25.92;10.45;;;;;;;19.50;100.00;101785.59;12430973;23;20025;-88
2022/10/29 12:20:00;;;;;;;26.25;10.13;;;;;;;18.36;100.00;101583.06;12476641;23;20079;-87
2022/10/29 12:25:42;;;;;;;;;;;;;;;;;;;;;
2022/10/29 12:32:06;;;;;;;;;;;;;;;;;;;;;
2022/10/29 12:38:24;;;;;;;;;;;;;;;;;;;;;
2022/10/29 12:43:32;;;;;;;19.48;9.23;;;;;;;18.92;100.00;101679.44;12008972;24;20022;-91
2022/10/29 12:48:47;;;;;;;18.70;9.15;;;;;;;20.10;100.00;101757.34;12131343;23;20015;-87
2022/10/29 12:54:15;;;;;;;18.98;8.93;;;;;;;19.23;100.00;101673.59;12595608;23;20340;-87
2022/10/29 12:59:34;;;;;;;;;;;;;;;19.55;100.00;101746.47;12628112;23;20037;-88
2022/10/29 13:04:35;;;;;;;26.13;9.27;;;;;;;18.72;100.00;101649.72;12614351;23;20276;-88
2022/10/29 13:09:35;;;;;;;28.45;9.55;;;;;;;19.26;100.00;101603.22;12552353;23;20013;-89
2022/10/29 13:15:07;;;;;;;26.35;10.70;;;;;;;20.98;100.00;101619.03;12581255;23;20410;-86
2022/10/29 13:20:29;;;;;;;23.98;11.20;;;;;;;21.89;100.00;101708.97;12500913;23;20019;-90
2022/10/29 13:25:50;;;;;;;26.00;10.80;;;;;;;21.53;100.00;101698.44;12364636;23;20047;-92
2022/10/29 13:38:07;;;;;;;;;;;;;;;;;;;;;
2022/10/29 13:43:30;;;;;;;30.55;11.23;;;;;;;19.89;100.00;101533.19;12455783;23;20098;-92
2022/10/29 13:48:33;;;;;;;23.83;12.98;;;;;;;19.80;100.00;101548.13;12458947;23;20351;-90
2022/10/29 13:53:56;;;;;;;22.23;11.30;;;;;;;19.96;100.00;101588.69;12550818;23;20032;-93
2022/10/29 13:58:57;;;;;;;23.75;10.88;;;;;;;20.57;100.00;101609.34;12507637;23;20029;-92
2022/10/29 14:04:15;;;;;;;;;;;;;;;;;;;;;
2022/10/29 14:09:24;;;;;;;23.92;10.88;;;;;;;22.00;100.00;101510.53;12408137;23;20410;-89
2022/10/29 14:15:00;;;;;;;20.40;11.15;;;;;;;21.91;100.00;101440.38;12473412;23;20429;-92
2022/10/29 14:20:55;;;;;;;23.75;10.75;;;;;;;22.66;100.00;101639.16;12398961;23;20441;-91
2022/10/29 14:26:09;;;;;;;;;;;;;;;;;;;;;
2022/10/29 14:38:27;;;;;;;26.02;12.23;;;;;;;20.08;100.00;101646.97;12405695;23;20025;-89
2022/10/29 14:43:33;;;;;;;24.52;12.43;;;;;;;18.38;100.00;101496.34;12410374;23;20023;-89
2022/10/29 14:48:36;;;;;;;28.80;13.32;;;;;;;18.49;100.00;101514.66;12399079;23;20370;-89
2022/10/29 14:53:50;;;;;;;;;;;;;;;;;;;;;
2022/10/29 14:59:06;;;;;;;22.30;12.27;;;;;;;19.55;100.00;101592.84;12300432;23;20029;-90
2022/10/29 15:04:19;;;;;;;23.30;11.10;;;;;;;19.00;100.00;101556.03;12372796;23;20003;-88
2022/10/29 15:09:26;;;;;;;26.58;12.98;;;;;;;18.72;100.00;101550.13;12440742;23;20068;-89
2022/10/29 15:14:29;;;;;;;30.98;14.98;;;;;;;19.31;100.00;101650.63;12483840;23;20053;-85
2022/10/29 15:20:22;;;;;;;22.08;11.43;;;;;;;17.64;100.00;101418.31;12614072;23;20466;-90
2022/10/29 15:26:40;;;;;;;;;;;;;;;;;;;;;
2022/10/29 15:57:50;;;;;;;;;;;;;;;;;;;;;
2022/10/29 17:45:57;;;;;;;;;;;;;;;;;;;;;
2022/10/29 22:03:53;;;;;;;52.77;29.27;;;;;;;10.03;100.00;101303.47;12941354;22;20024;-94
2022/10/29 22:09:30;;;;;;;51.35;28.70;;;;;;;12.05;100.00;101616.94;12647195;23;20026;-95
2022/10/29 22:41:13;;;;;;;;;;;;;;;;;;;;;
2022/10/29 22:46:59;;;;;;;54.03;28.57;;;;;;;10.28;100.00;101402.28;12737197;22;20055;-92
2022/10/29 22:53:16;;;;;;;;;;;;;;;;;;;;;
2022/10/29 22:59:06;;;;;;;;;;;;;;;;;;;;;
2022/10/29 23:04:40;;;;;;;;;;;;;;;;;;;;;
2022/10/29 23:09:54;;;;;;;48.75;26.85;;;;;;;11.42;100.00;101572.59;12263957;23;20019;-92
2022/10/29 23:15:14;;;;;;;;;;;;;;;;;;;;;
2022/10/29 23:21:12;;;;;;;;;;;;;;;;;;;;;
2022/10/29 23:33:00;;;;;;;;;;;;;;;;;;;;;
2022/10/29 23:38:19;;;;;;;51.17;26.70;;;;;;;10.88;100.00;101483.78;12554302;22;20019;-91
2022/10/29 23:51:03;;;;;;;;;;;;;;;;;;;;;
2022/10/29 23:57:09;;;;;;;51.75;27.38;;;;;;;11.51;100.00;101618.03;12194061;23;20495;-92
